Time;durP1;ratioP1;P1;durP2;ratioP2;P2;SDS_P1;SDS_P2;PMS_P1;PMS_P2;Temp;Humidity;BMP_temperature;BMP_pressure;BME280_temperature;BME280_humidity;BME280_pressure;Samples;Min_cycle;Max_cycle;Signal;HPM_P1;HPM_P2
2024/01/30 00:01:30;;;;;;;17.13;8.82;;;;;;;8.61;100.00;102579.72;6083234;19;20467;-74
2024/01/30 00:03:35;;;;;;;17.70;9.23;;;;;;;8.63;100.00;102575.31;6083444;19;20041;-72
2024/01/30 00:05:43;;;;;;;18.38;10.02;;;;;;;8.71;100.00;102575.28;6083058;19;20003;-72
2024/01/30 00:07:48;;;;;;;20.83;9.30;;;;;;;8.70;100.00;102577.06;6078934;19;20405;-74
2024/01/30 00:09:51;;;;;;;20.15;8.90;;;;;;;8.69;100.00;102577.94;6081224;19;20013;-73
2024/01/30 00:11:56;;;;;;;15.32;7.95;;;;;;;8.76;100.00;102577.00;6082140;19;20002;-72
2024/01/30 00:14:01;;;;;;;14.15;6.78;;;;;;;8.73;100.00;102579.66;6086141;19;20009;-72
2024/01/30 00:16:06;;;;;;;12.75;7.40;;;;;;;8.69;100.00;102566.56;6084286;19;20025;-73
2024/01/30 00:18:12;;;;;;;14.02;9.05;;;;;;;8.74;100.00;102570.94;6083146;19;20041;-72
2024/01/30 00:20:17;;;;;;;14.43;8.27;;;;;;;8.78;100.00;102561.28;6080576;19;20011;-73
2024/01/30 00:22:22;;;;;;;15.18;8.35;;;;;;;8.83;100.00;102554.28;6080874;19;20010;-74
2024/01/30 00:24:27;;;;;;;14.20;7.63;;;;;;;8.77;100.00;102552.56;6082430;19;20016;-73
2024/01/30 00:26:29;;;;;;;14.88;7.53;;;;;;;8.84;100.00;102549.91;6082883;19;20018;-73
2024/01/30 00:28:34;;;;;;;19.95;9.55;;;;;;;8.85;100.00;102543.78;6080760;19;20077;-73
2024/01/30 00:30:39;;;;;;;13.30;7.88;;;;;;;8.86;100.00;102546.38;6084007;19;20034;-73
2024/01/30 00:32:44;;;;;;;15.10;8.35;;;;;;;8.89;100.00;102541.13;6080725;19;20010;-73
2024/01/30 00:34:50;;;;;;;16.02;7.82;;;;;;;8.90;100.00;102545.50;6085352;19;19998;-73
2024/01/30 00:36:55;;;;;;;14.02;8.20;;;;;;;8.83;100.00;102540.31;6083200;19;20382;-73
2024/01/30 00:39:06;;;;;;;15.43;7.85;;;;;;;8.86;100.00;102548.13;6082553;19;20013;-73
2024/01/30 00:41:11;;;;;;;14.27;8.05;;;;;;;8.87;100.00;102542.88;6076524;19;20085;-72
2024/01/30 00:43:15;;;;;;;15.43;7.65;;;;;;;8.90;100.00;102539.34;6080794;19;20029;-73
2024/01/30 00:45:18;;;;;;;14.90;8.15;;;;;;;8.83;100.00;102548.16;6083464;19;20034;-72
2024/01/30 00:47:26;;;;;;;15.30;8.40;;;;;;;8.90;100.00;102547.22;6083724;19;20015;-73
2024/01/30 00:49:29;;;;;;;15.88;8.45;;;;;;;8.86;100.00;102566.50;6085791;19;20033;-72
2024/01/30 00:51:34;;;;;;;15.73;8.32;;;;;;;8.83;100.00;102569.13;6086321;19;20014;-73
2024/01/30 00:53:41;;;;;;;16.70;8.05;;;;;;;8.78;100.00;102571.78;6077756;19;20081;-73
2024/01/30 00:55:50;;;;;;;14.52;6.82;;;;;;;8.76;100.00;102566.53;6084672;19;20029;-74
2024/01/30 00:57:55;;;;;;;12.35;6.63;;;;;;;8.76;100.00;102561.28;6083506;19;20479;-73
2024/01/30 01:00:01;;;;;;;15.43;7.80;;;;;;;8.74;100.00;102552.59;6083434;19;20470;-74
2024/01/30 01:02:06;;;;;;;13.85;7.57;;;;;;;8.76;100.00;102556.03;6084227;19;20019;-74
2024/01/30 01:04:11;;;;;;;13.60;6.70;;;;;;;8.72;100.00;102556.94;6083365;19;19999;-73
2024/01/30 01:06:16;;;;;;;13.35;7.35;;;;;;;8.66;100.00;102548.25;6084258;19;20279;-73
2024/01/30 01:08:22;;;;;;;15.50;7.70;;;;;;;8.71;100.00;102546.47;6083620;19;20033;-74
2024/01/30 01:10:27;;;;;;;17.15;8.48;;;;;;;8.71;100.00;102552.56;6084539;19;20019;-73
2024/01/30 01:12:37;;;;;;;14.45;7.78;;;;;;;8.62;100.00;102547.38;6081922;19;20039;-73
2024/01/30 01:14:45;;;;;;;13.45;7.88;;;;;;;8.68;100.00;102551.72;6084591;19;20017;-74
2024/01/30 01:16:50;;;;;;;15.85;7.93;;;;;;;8.60;100.00;102545.66;6079023;19;20432;-74
2024/01/30 01:18:52;;;;;;;13.30;6.95;;;;;;;8.51;100.00;102546.59;6084048;19;20410;-74
2024/01/30 01:21:00;;;;;;;15.02;7.93;;;;;;;8.49;100.00;102546.56;6084965;19;20014;-74
2024/01/30 01:23:06;;;;;;;13.93;7.28;;;;;;;8.48;100.00;102544.84;6083500;19;20506;-73
2024/01/30 01:25:11;;;;;;;13.10;7.10;;;;;;;8.41;100.00;102537.00;6085741;19;20017;-73
2024/01/30 01:27:16;;;;;;;14.82;7.43;;;;;;;8.38;100.00;102527.38;6081696;19;20006;-73
2024/01/30 01:29:28;;;;;;;15.35;9.10;;;;;;;8.40;100.00;102535.25;6083305;19;20570;-73
2024/01/30 01:31:33;;;;;;;16.53;8.80;;;;;;;8.40;100.00;102525.66;6082423;19;20007;-73
2024/01/30 01:33:40;;;;;;;14.93;8.13;;;;;;;8.52;100.00;102522.09;6082537;19;20598;-73
2024/01/30 01:35:45;;;;;;;14.10;8.00;;;;;;;8.58;100.00;102522.06;6083154;19;20490;-73
2024/01/30 01:37:54;;;;;;;13.95;7.55;;;;;;;8.56;100.00;102516.00;6082484;19;20542;-73
2024/01/30 01:40:00;;;;;;;14.30;7.72;;;;;;;8.59;100.00;102507.25;6082797;19;20487;-74
2024/01/30 01:42:05;;;;;;;12.75;7.43;;;;;;;8.63;100.00;102522.91;6084565;19;20379;-73
2024/01/30 01:44:10;;;;;;;15.77;7.38;;;;;;;8.60;100.00;102522.06;6084379;19;20003;-74
2024/01/30 01:46:20;;;;;;;14.15;6.93;;;;;;;8.60;100.00;102522.06;6082136;19;20042;-74
2024/01/30 01:48:27;;;;;;;14.95;8.50;;;;;;;8.53;100.00;102527.34;6082701;19;20002;-74
2024/01/30 01:50:33;;;;;;;12.75;6.80;;;;;;;8.55;100.00;102532.56;6082013;19;20292;-74
2024/01/30 01:52:40;;;;;;;15.55;8.50;;;;;;;8.56;100.00;102532.56;6084164;19;20349;-73
2024/01/30 01:54:45;;;;;;;13.15;6.78;;;;;;;8.70;100.00;102532.50;6089876;19;20027;-74
2024/01/30 01:56:50;;;;;;;14.68;6.72;;;;;;;8.74;100.00;102526.38;6087611;19;20396;-74
2024/01/30 01:58:57;;;;;;;12.82;7.55;;;;;;;8.80;100.00;102525.47;6087818;19;20011;-74
2024/01/30 02:01:03;;;;;;;13.48;8.02;;;;;;;8.74;100.00;102522.84;6088036;19;20056;-74
2024/01/30 02:03:13;;;;;;;14.70;7.25;;;;;;;8.74;100.00;102523.75;6086314;19;20007;-74
2024/01/30 02:05:19;;;;;;;15.70;6.85;;;;;;;8.72;100.00;102520.25;6086522;19;20023;-74
2024/01/30 02:07:26;;;;;;;12.18;6.95;;;;;;;8.79;100.00;102524.59;6087925;19;20021;-75
2024/01/30 02:09:34;;;;;;;14.50;7.55;;;;;;;8.72;100.00;102511.53;6088277;19;20089;-74
2024/01/30 02:11:40;;;;;;;11.65;6.32;;;;;;;8.77;100.00;102510.63;6090112;19;20015;-72
2024/01/30 02:13:45;;;;;;;15.63;7.32;;;;;;;8.77;100.00;102510.63;6087878;19;20443;-72
2024/01/30 02:15:53;;;;;;;14.27;7.07;;;;;;;8.71;100.00;102505.41;6089870;19;20439;-73
2024/01/30 02:17:59;;;;;;;12.80;7.20;;;;;;;8.83;100.00;102503.59;6089025;19;20534;-73
2024/01/30 02:20:05;;;;;;;14.60;7.38;;;;;;;8.79;100.00;102503.63;6088206;19;20355;-72
2024/01/30 02:22:14;;;;;;;14.00;8.05;;;;;;;8.81;100.00;102510.59;6085757;19;20011;-73
2024/01/30 02:24:19;;;;;;;14.52;7.57;;;;;;;8.76;100.00;102503.63;6086810;19;20010;-74
2024/01/30 02:26:26;;;;;;;14.55;7.68;;;;;;;8.81;100.00;102519.31;6088726;19;20372;-73
2024/01/30 02:28:31;;;;;;;13.88;7.78;;;;;;;8.76;100.00;102516.72;6088226;19;20065;-73
2024/01/30 02:30:37;;;;;;;14.63;7.82;;;;;;;8.74;100.00;102515.88;6088819;19;20029;-73
2024/01/30 02:32:43;;;;;;;14.90;7.45;;;;;;;8.77;100.00;102521.09;6086799;19;20010;-74
2024/01/30 02:34:48;;;;;;;12.20;7.35;;;;;;;8.75;100.00;102512.38;6085301;19;20041;-72
2024/01/30 02:36:54;;;;;;;16.48;8.10;;;;;;;8.76;100.00;102514.09;6087030;19;20500;-72
2024/01/30 02:39:05;;;;;;;15.38;7.75;;;;;;;8.83;100.00;102514.09;6088362;19;20014;-72
2024/01/30 02:41:07;;;;;;;16.02;8.52;;;;;;;8.76;100.00;102508.00;6082812;19;20013;-73
2024/01/30 02:43:14;;;;;;;14.55;7.13;;;;;;;8.75;100.00;102498.41;6085242;19;20039;-72
2024/01/30 02:45:20;;;;;;;15.55;7.07;;;;;;;8.73;100.00;102508.88;6088298;19;20011;-72
2024/01/30 02:47:25;;;;;;;13.52;7.28;;;;;;;8.72;100.00;102499.28;6083753;19;20527;-74
2024/01/30 02:49:30;;;;;;;13.07;6.95;;;;;;;8.72;100.00;102493.19;6087531;19;20090;-74
2024/01/30 02:51:33;;;;;;;17.63;6.93;;;;;;;8.75;100.00;102482.69;6088053;19;20014;-73
2024/01/30 02:53:39;;;;;;;13.63;7.43;;;;;;;8.74;100.00;102481.81;6081987;19;20070;-73
2024/01/30 02:55:47;;;;;;;12.43;7.30;;;;;;;8.73;100.00;102484.44;6085349;19;20011;-73
2024/01/30 02:57:52;;;;;;;15.40;7.13;;;;;;;8.82;100.00;102487.00;6085086;19;20147;-73
2024/01/30 02:59:57;;;;;;;11.40;6.95;;;;;;;8.82;100.00;102486.09;6083744;19;20601;-73
2024/01/30 03:02:02;;;;;;;12.68;6.97;;;;;;;8.83;100.00;102482.63;6086135;19;20487;-73
2024/01/30 03:04:08;;;;;;;13.32;7.22;;;;;;;8.90;100.00;102471.19;6083259;19;20021;-73
2024/01/30 03:06:15;;;;;;;12.85;6.85;;;;;;;8.82;100.00;102479.13;6083641;19;20011;-73
2024/01/30 03:08:20;;;;;;;17.23;7.93;;;;;;;8.89;100.00;102479.94;6084290;19;20014;-74
2024/01/30 03:10:30;;;;;;;18.27;8.65;;;;;;;8.84;100.00;102479.97;6084965;19;20471;-74
2024/01/30 03:12:38;;;;;;;14.45;7.60;;;;;;;8.81;100.00;102479.13;6085987;19;20011;-73
2024/01/30 03:14:44;;;;;;;14.05;6.68;;;;;;;8.74;100.00;102476.56;6085786;19;20057;-73
2024/01/30 03:16:49;;;;;;;13.80;7.45;;;;;;;8.81;100.00;102480.00;6082473;19;20034;-72
2024/01/30 03:18:51;;;;;;;15.48;8.93;;;;;;;8.91;100.00;102480.81;6085745;19;20074;-73
2024/01/30 03:20:57;;;;;;;14.70;7.80;;;;;;;8.88;100.00;102476.47;6085605;19;20009;-73
2024/01/30 03:23:03;;;;;;;15.10;8.13;;;;;;;8.86;100.00;102485.22;6084695;19;20090;-72
2024/01/30 03:25:09;;;;;;;14.20;7.40;;;;;;;8.79;100.00;102476.50;6086259;19;20021;-72
2024/01/30 03:27:11;;;;;;;13.38;7.63;;;;;;;8.81;100.00;102481.75;6084590;19;20002;-73
2024/01/30 03:29:19;;;;;;;12.70;7.75;;;;;;;8.79;100.00;102482.66;6082682;19;20436;-73
2024/01/30 03:31:27;;;;;;;14.80;8.23;;;;;;;8.87;100.00;102479.09;6082060;19;20014;-74
2024/01/30 03:33:32;;;;;;;16.67;7.50;;;;;;;8.88;100.00;102488.72;6080655;19;19999;-71
2024/01/30 03:35:37;;;;;;;12.85;7.25;;;;;;;8.82;100.00;102480.88;6079031;19;20741;-72
2024/01/30 03:37:43;;;;;;;14.07;8.20;;;;;;;8.79;100.00;102487.91;6084359;19;20578;-74
2024/01/30 03:39:48;;;;;;;12.65;6.82;;;;;;;8.76;100.00;102482.66;6083098;19;20018;-75
2024/01/30 03:41:53;;;;;;;16.38;7.18;;;;;;;8.75;100.00;102486.16;6083721;19;20041;-74
2024/01/30 03:44:01;;;;;;;14.50;7.75;;;;;;;8.83;100.00;102480.00;6084193;19;20032;-74
2024/01/30 03:46:09;;;;;;;16.35;8.77;;;;;;;8.77;100.00;102476.53;6083627;19;20010;-74
2024/01/30 03:48:12;;;;;;;13.27;7.65;;;;;;;8.73;100.00;102477.44;6083800;19;20095;-73
2024/01/30 03:50:17;;;;;;;14.00;8.32;;;;;;;8.73;100.00;102474.81;6084241;19;20002;-74
2024/01/30 03:52:22;;;;;;;16.05;7.53;;;;;;;8.71;100.00;102468.69;6081517;19;20101;-72
2024/01/30 03:54:30;;;;;;;16.58;6.70;;;;;;;8.79;100.00;102476.50;6081385;19;20073;-72
2024/01/30 03:56:35;;;;;;;13.77;7.05;;;;;;;8.82;100.00;102470.38;6085857;19;20455;-72
2024/01/30 03:58:40;;;;;;;13.02;6.85;;;;;;;8.75;100.00;102467.81;6084412;19;20035;-72
2024/01/30 04:00:45;;;;;;;15.27;7.55;;;;;;;8.86;100.00;102470.34;6084846;19;20461;-73
2024/01/30 04:02:53;;;;;;;13.63;7.22;;;;;;;8.79;100.00;102464.31;6083038;19;20017;-73
2024/01/30 04:04:59;;;;;;;16.88;7.28;;;;;;;8.85;100.00;102459.91;6084852;19;20011;-74
2024/01/30 04:07:06;;;;;;;17.38;7.30;;;;;;;8.82;100.00;102475.63;6086943;19;20107;-75
2024/01/30 04:09:12;;;;;;;12.93;7.25;;;;;;;8.86;100.00;102474.72;6085167;19;20898;-74
2024/01/30 04:11:17;;;;;;;15.73;7.30;;;;;;;8.81;100.00;102473.91;6086736;19;20002;-73
2024/01/30 04:13:20;;;;;;;15.32;7.32;;;;;;;8.76;100.00;102466.06;6085228;19;20035;-74
2024/01/30 04:15:26;;;;;;;15.82;7.68;;;;;;;8.74;100.00;102476.56;6085923;19;20566;-75
2024/01/30 04:17:32;;;;;;;16.95;7.72;;;;;;;8.75;100.00;102457.34;6084962;19;20486;-74
2024/01/30 04:19:43;;;;;;;17.00;8.07;;;;;;;8.73;100.00;102471.31;6081132;19;20007;-75
2024/01/30 04:21:48;;;;;;;15.90;7.68;;;;;;;8.78;100.00;102473.03;6084066;19;20435;-76
2024/01/30 04:23:54;;;;;;;14.65;6.85;;;;;;;8.79;100.00;102469.53;6084872;19;20471;-73
2024/01/30 04:25:59;;;;;;;17.60;7.65;;;;;;;8.79;100.00;102463.41;6082997;19;20022;-74
2024/01/30 04:28:05;;;;;;;15.82;7.45;;;;;;;8.77;100.00;102460.81;6082167;19;20455;-74
2024/01/30 04:30:11;;;;;;;16.83;7.28;;;;;;;8.79;100.00;102453.81;6083574;19;20363;-75
2024/01/30 04:32:16;;;;;;;13.60;7.00;;;;;;;8.74;100.00;102445.13;6083746;19;20023;-75
2024/01/30 04:34:23;;;;;;;11.80;6.38;;;;;;;8.76;100.00;102445.09;6081461;19;20579;-74
2024/01/30 04:36:33;;;;;;;12.05;6.63;;;;;;;8.84;100.00;102445.03;6084030;19;20102;-75
2024/01/30 04:38:40;;;;;;;18.13;8.55;;;;;;;8.81;100.00;102447.69;6084358;19;20451;-75
2024/01/30 04:40:45;;;;;;;14.88;7.68;;;;;;;8.72;100.00;102443.38;6084926;19;20006;-74
2024/01/30 04:42:51;;;;;;;15.25;7.07;;;;;;;8.76;100.00;102445.09;6083547;19;20042;-74
2024/01/30 04:44:56;;;;;;;13.60;7.68;;;;;;;8.77;100.00;102442.47;6072646;19;20009;-74
2024/01/30 04:47:01;;;;;;;11.88;7.55;;;;;;;8.82;100.00;102438.94;6086125;19;20022;-74
2024/01/30 04:49:08;;;;;;;12.85;6.97;;;;;;;8.83;100.00;102443.31;6085588;19;20007;-75
2024/01/30 04:51:13;;;;;;;15.48;7.47;;;;;;;8.80;100.00;102436.34;6085466;19;20475;-73
2024/01/30 04:53:18;;;;;;;13.13;6.97;;;;;;;8.79;100.00;102440.72;6081759;19;20038;-75
2024/01/30 04:55:24;;;;;;;13.18;7.30;;;;;;;8.72;100.00;102443.38;6084174;19;20470;-75
2024/01/30 04:57:30;;;;;;;13.38;7.85;;;;;;;8.87;100.00;102450.25;6083297;19;20010;-75
2024/01/30 04:59:35;;;;;;;14.10;7.22;;;;;;;8.94;100.00;102452.81;6084492;19;20003;-75
2024/01/30 05:01:40;;;;;;;14.52;7.28;;;;;;;8.88;100.00;102441.53;6078675;19;20117;-74
2024/01/30 05:03:47;;;;;;;15.30;7.55;;;;;;;8.98;100.00;102451.06;6081165;19;20003;-74
2024/01/30 05:05:53;;;;;;;12.23;6.40;;;;;;;9.02;100.00;102458.00;6082826;19;20589;-74
2024/01/30 05:07:59;;;;;;;16.42;7.20;;;;;;;9.00;100.00;102449.28;6082646;19;20791;-74
2024/01/30 05:10:08;;;;;;;14.25;7.07;;;;;;;8.99;100.00;102448.41;6083196;19;20010;-74
2024/01/30 05:12:13;;;;;;;12.35;8.15;;;;;;;8.99;100.00;102444.91;6082096;19;20560;-74
2024/01/30 05:14:18;;;;;;;14.38;7.60;;;;;;;9.06;100.00;102446.63;6081084;19;20014;-74
2024/01/30 05:16:24;;;;;;;13.88;7.90;;;;;;;9.11;100.00;102441.31;6078681;19;20011;-75
2024/01/30 05:18:30;;;;;;;15.20;8.50;;;;;;;8.99;100.00;102430.06;6081943;19;20412;-75
2024/01/30 05:20:37;;;;;;;16.15;8.20;;;;;;;9.06;100.00;102449.25;6084180;19;20006;-74
2024/01/30 05:22:44;;;;;;;14.02;7.15;;;;;;;9.10;100.00;102443.06;6081100;19;20661;-75
2024/01/30 05:24:51;;;;;;;15.68;6.82;;;;;;;9.09;100.00;102441.34;6083220;19;20015;-74
2024/01/30 05:26:58;;;;;;;14.35;8.50;;;;;;;9.13;100.00;102440.41;6084982;19;20006;-74
2024/01/30 05:29:03;;;;;;;14.52;7.07;;;;;;;9.16;100.00;102452.63;6087059;19;20023;-74
2024/01/30 05:31:09;;;;;;;15.93;7.47;;;;;;;9.15;100.00;102443.91;6087922;19;20687;-74
2024/01/30 05:33:14;;;;;;;15.45;7.38;;;;;;;9.15;100.00;102440.41;6089077;19;20070;-73
2024/01/30 05:35:20;;;;;;;12.23;7.00;;;;;;;9.17;100.00;102446.53;6085366;19;20337;-75
2024/01/30 05:37:26;;;;;;;14.98;7.68;;;;;;;9.16;100.00;102445.66;6085944;19;20435;-74
2024/01/30 05:39:32;;;;;;;13.95;6.85;;;;;;;9.16;100.00;102444.75;6085295;19;20009;-74
2024/01/30 05:41:41;;;;;;;15.85;7.57;;;;;;;9.21;100.00;102440.34;6086521;19;20015;-74
2024/01/30 05:43:49;;;;;;;13.10;7.20;;;;;;;9.15;100.00;102446.53;6084679;19;20200;-74
2024/01/30 05:45:52;;;;;;;14.15;7.22;;;;;;;9.16;100.00;102436.91;6088151;19;20015;-74
2024/01/30 05:47:57;;;;;;;;;;;;;;;9.14;100.00;102443.94;6086534;19;20608;-75
2024/01/30 05:50:03;;;;;;;18.52;8.02;;;;;;;9.14;100.00;102449.19;6089485;19;20273;-76
2024/01/30 05:52:09;;;;;;;16.02;8.23;;;;;;;9.20;100.00;102455.22;6087415;19;20023;-75
2024/01/30 05:54:15;;;;;;;14.88;8.18;;;;;;;9.18;100.00;102456.97;6086451;19;20011;-75
2024/01/30 05:56:22;;;;;;;15.23;8.43;;;;;;;9.16;100.00;102456.16;6089381;19;20057;-75
2024/01/30 05:58:27;;;;;;;16.83;8.35;;;;;;;9.21;100.00;102456.94;6086124;19;20006;-76
2024/01/30 06:00:34;;;;;;;17.33;7.35;;;;;;;9.23;100.00;102463.06;6086116;19;20333;-74
2024/01/30 06:02:39;;;;;;;12.55;7.28;;;;;;;9.25;100.00;102456.94;6084856;19;20075;-75
2024/01/30 06:04:44;;;;;;;16.63;8.30;;;;;;;9.21;100.00;102450.84;6086155;19;20010;-75
2024/01/30 06:06:49;;;;;;;13.45;6.95;;;;;;;9.25;100.00;102462.19;6085685;19;20010;-75
2024/01/30 06:08:56;;;;;;;13.68;7.93;;;;;;;9.24;100.00;102461.31;6085644;19;20003;-74
2024/01/30 06:11:02;;;;;;;15.27;8.40;;;;;;;9.29;100.00;102464.75;6086573;19;20010;-74
2024/01/30 06:13:10;;;;;;;13.40;7.07;;;;;;;9.27;100.00;102457.78;6083689;19;20679;-73
2024/01/30 06:15:15;;;;;;;15.35;8.02;;;;;;;9.30;100.00;102448.16;6084567;19;20011;-73
2024/01/30 06:17:23;;;;;;;16.33;7.03;;;;;;;9.23;100.00;102452.56;6086503;19;20402;-73
2024/01/30 06:19:29;;;;;;;17.55;8.02;;;;;;;9.30;100.00;102458.63;6084525;19;20038;-74
2024/01/30 06:21:36;;;;;;;15.68;7.70;;;;;;;9.32;100.00;102456.88;6084938;19;20491;-73
2024/01/30 06:23:41;;;;;;;16.80;7.80;;;;;;;9.32;100.00;102455.97;6084767;19;20003;-74
2024/01/30 06:25:47;;;;;;;15.32;7.15;;;;;;;9.38;100.00;102461.19;6080148;19;20333;-75
2024/01/30 06:27:52;;;;;;;14.60;7.30;;;;;;;9.37;100.00;102460.34;6089176;19;20013;-74
2024/01/30 06:29:57;;;;;;;16.30;7.18;;;;;;;9.46;100.00;102464.63;6086378;19;20007;-74
2024/01/30 06:32:02;;;;;;;12.50;7.90;;;;;;;9.36;100.00;102457.72;6085003;19;20021;-74
2024/01/30 06:34:11;;;;;;;14.98;8.05;;;;;;;9.39;100.00;102468.16;6085851;19;20010;-74
2024/01/30 06:36:17;;;;;;;15.70;9.00;;;;;;;9.37;100.00;102462.06;6085452;19;20090;-75
2024/01/30 06:38:22;;;;;;;17.20;8.68;;;;;;;9.50;100.00;102455.81;6084640;19;20554;-75
2024/01/30 06:40:27;;;;;;;13.63;7.68;;;;;;;9.48;100.00;102462.84;6088149;19;20006;-76
2024/01/30 06:42:29;;;;;;;15.65;7.88;;;;;;;9.49;100.00;102463.72;6087404;19;20054;-74
2024/01/30 06:44:34;;;;;;;14.82;7.60;;;;;;;9.50;100.00;102471.56;6085383;19;20010;-76
2024/01/30 06:46:39;;;;;;;14.00;7.60;;;;;;;9.55;100.00;102464.50;6088126;19;20002;-74
2024/01/30 06:48:44;;;;;;;14.32;7.38;;;;;;;9.54;100.00;102470.66;6087597;19;20081;-74
2024/01/30 06:50:53;;;;;;;14.50;7.32;;;;;;;9.55;100.00;102482.88;6086904;19;20464;-74
2024/01/30 06:52:58;;;;;;;14.38;7.78;;;;;;;9.57;100.00;102467.13;6083711;19;20007;-74
2024/01/30 06:55:03;;;;;;;16.40;7.47;;;;;;;9.52;100.00;102467.16;6085265;19;20006;-74
2024/01/30 06:57:11;;;;;;;16.20;8.13;;;;;;;9.53;100.00;102473.28;6085509;19;20007;-74
2024/01/30 06:59:16;;;;;;;17.27;6.95;;;;;;;9.56;100.00;102466.25;6083179;19;20011;-76
2024/01/30 07:01:22;;;;;;;13.55;7.25;;;;;;;9.62;100.00;102474.06;6084871;19;20018;-75
2024/01/30 07:03:28;;;;;;;14.48;7.30;;;;;;;9.54;100.00;102473.28;6085103;19;20030;-75
2024/01/30 07:05:34;;;;;;;13.35;7.40;;;;;;;9.54;100.00;102478.53;6084489;19;20465;-76
2024/01/30 07:07:44;;;;;;;12.45;7.25;;;;;;;9.50;100.00;102475.94;6083882;19;20360;-75
2024/01/30 07:09:49;;;;;;;14.10;7.88;;;;;;;9.51;100.00;102473.31;6085914;19;20010;-75
2024/01/30 07:11:58;;;;;;;17.77;7.15;;;;;;;9.57;100.00;102482.88;6083772;19;20034;-74
2024/01/30 07:14:03;;;;;;;14.73;6.78;;;;;;;9.58;100.00;102480.22;6083771;19;20508;-74
2024/01/30 07:16:09;;;;;;;17.50;8.18;;;;;;;9.60;100.00;102483.69;6082591;19;20006;-74
2024/01/30 07:18:14;;;;;;;15.48;7.47;;;;;;;9.66;100.00;102481.03;6084811;19;20006;-74
2024/01/30 07:20:20;;;;;;;13.45;7.20;;;;;;;9.63;100.00;102481.03;6084198;19;20018;-74
2024/01/30 07:22:27;;;;;;;15.48;7.30;;;;;;;9.66;100.00;102488.00;6084990;19;20055;-75
2024/01/30 07:24:36;;;;;;;15.20;7.88;;;;;;;9.67;100.00;102481.91;6087164;19;20007;-75
2024/01/30 07:26:41;;;;;;;15.55;7.50;;;;;;;9.71;100.00;102490.59;6085757;19;20010;-73
2024/01/30 07:28:46;;;;;;;14.40;6.65;;;;;;;9.77;100.00;102490.53;6086159;19;20051;-76
2024/01/30 07:30:49;;;;;;;17.52;7.75;;;;;;;9.74;100.00;102493.19;6083600;19;20015;-76
2024/01/30 07:32:54;;;;;;;19.38;8.15;;;;;;;9.71;100.00;102501.97;6086017;19;20010;-76
2024/01/30 07:34:59;;;;;;;14.07;7.07;;;;;;;9.66;100.00;102499.41;6084701;19;20023;-74
2024/01/30 07:37:15;;;;;;;15.85;7.75;;;;;;;9.71;100.00;102503.72;6087600;19;20010;-74
2024/01/30 07:39:20;;;;;;;13.88;7.15;;;;;;;9.73;100.00;102507.22;6085053;19;20363;-74
2024/01/30 07:41:31;;;;;;;12.02;6.90;;;;;;;9.72;100.00;102495.84;6083054;19;20114;-74
2024/01/30 07:43:37;;;;;;;15.15;6.18;;;;;;;9.79;100.00;102512.38;6082675;19;20034;-75
2024/01/30 07:45:43;;;;;;;19.73;8.25;;;;;;;9.75;100.00;102516.81;6083690;19;20010;-75
2024/01/30 07:47:48;;;;;;;15.13;7.60;;;;;;;9.75;100.00;102510.69;6084761;19;20027;-73
2024/01/30 07:49:51;;;;;;;14.50;6.78;;;;;;;9.83;100.00;102511.50;6084386;19;20006;-74
2024/01/30 07:51:56;;;;;;;16.90;7.40;;;;;;;9.85;100.00;102513.22;6081136;19;20350;-74
2024/01/30 07:54:02;;;;;;;22.00;7.90;;;;;;;9.82;100.00;102520.22;6083618;19;20017;-74
2024/01/30 07:56:08;;;;;;;15.10;8.40;;;;;;;9.80;100.00;102515.00;6088167;19;20003;-75
2024/01/30 07:58:16;;;;;;;16.23;6.53;;;;;;;9.75;100.00;102515.94;6082435;19;20257;-74
2024/01/30 08:00:19;;;;;;;14.63;7.45;;;;;;;9.85;100.00;102526.34;6082757;19;20010;-73
2024/01/30 08:02:25;;;;;;;16.55;7.50;;;;;;;9.81;100.00;102523.75;6084876;19;20038;-74
2024/01/30 08:04:30;;;;;;;15.15;7.68;;;;;;;9.77;100.00;102532.53;6083118;19;20503;-74
2024/01/30 08:06:36;;;;;;;12.57;7.15;;;;;;;9.82;100.00;102538.59;6085696;19;20087;-75
2024/01/30 08:08:45;;;;;;;16.73;8.05;;;;;;;9.78;100.00;102545.66;6082210;19;20007;-75
2024/01/30 08:10:49;;;;;;;15.45;6.68;;;;;;;9.80;100.00;102535.16;6082833;19;20054;-75
2024/01/30 08:12:54;;;;;;;13.50;7.00;;;;;;;9.81;100.00;102534.25;6082229;19;20034;-75
2024/01/30 08:15:03;;;;;;;14.20;7.82;;;;;;;9.84;100.00;102539.47;6084357;19;20011;-75
2024/01/30 08:17:08;;;;;;;13.00;7.15;;;;;;;9.85;100.00;102539.47;6081802;19;20024;-75
2024/01/30 08:19:13;;;;;;;17.45;7.95;;;;;;;9.84;100.00;102542.97;6081442;19;20038;-74
2024/01/30 08:21:18;;;;;;;19.23;7.13;;;;;;;9.91;100.00;102542.91;6080253;19;20074;-74
2024/01/30 08:23:26;;;;;;;16.50;8.32;;;;;;;9.83;100.00;102543.00;6082538;19;20031;-75
2024/01/30 08:25:31;;;;;;;14.48;7.63;;;;;;;9.91;100.00;102545.53;6083270;19;20031;-73
2024/01/30 08:27:38;;;;;;;17.60;8.23;;;;;;;9.91;100.00;102542.91;6084063;19;20013;-74
2024/01/30 08:29:43;;;;;;;16.52;7.75;;;;;;;9.98;100.00;102540.22;6079562;19;20070;-76
2024/01/30 08:31:51;;;;;;;15.38;8.60;;;;;;;9.92;100.00;102542.88;6077862;19;20367;-73
2024/01/30 08:33:56;;;;;;;15.05;8.07;;;;;;;9.90;100.00;102539.44;6081649;19;20043;-75
2024/01/30 08:35:59;;;;;;;14.32;7.05;;;;;;;9.98;100.00;102544.56;6082784;19;20019;-75
2024/01/30 08:38:04;;;;;;;15.77;6.80;;;;;;;9.96;100.00;102541.97;6082541;19;20022;-75
2024/01/30 08:40:11;;;;;;;15.52;7.55;;;;;;;10.01;100.00;102545.44;6082712;19;20010;-74
2024/01/30 08:42:18;;;;;;;16.20;7.40;;;;;;;9.97;100.00;102541.09;6081779;19;20034;-74
2024/01/30 08:44:21;;;;;;;15.38;7.82;;;;;;;9.97;100.00;102543.72;6079947;19;20003;-75
2024/01/30 08:46:27;;;;;;;16.92;7.55;;;;;;;10.00;100.00;102540.19;6083048;19;20010;-75
2024/01/30 08:48:34;;;;;;;16.38;7.00;;;;;;;9.95;100.00;102550.72;6081861;19;20010;-75
2024/01/30 08:50:39;;;;;;;12.60;6.20;;;;;;;9.93;100.00;102546.41;6081300;19;20014;-74
2024/01/30 08:52:46;;;;;;;22.05;8.48;;;;;;;9.98;100.00;102555.06;6080349;19;20078;-75
2024/01/30 08:54:54;;;;;;;18.83;7.88;;;;;;;9.97;100.00;102545.47;6080712;19;20086;-75
2024/01/30 08:56:59;;;;;;;18.83;8.65;;;;;;;10.01;100.00;102555.06;6082937;19;20006;-75
2024/01/30 08:59:05;;;;;;;16.80;7.75;;;;;;;10.00;100.00;102546.28;6084554;19;20010;-74
2024/01/30 09:01:09;;;;;;;15.07;8.07;;;;;;;10.05;100.00;102552.38;6083457;19;20451;-74
2024/01/30 09:03:16;;;;;;;20.38;8.00;;;;;;;10.03;100.00;102554.16;6085420;19;20014;-75
2024/01/30 09:05:24;;;;;;;16.67;8.05;;;;;;;10.06;100.00;102548.00;6087287;19;20377;-75
2024/01/30 09:07:31;;;;;;;15.23;8.52;;;;;;;10.10;100.00;102552.31;6086790;19;20003;-75
2024/01/30 09:09:33;;;;;;;16.73;7.28;;;;;;;10.13;100.00;102559.31;6085740;19;20002;-76
2024/01/30 09:11:38;;;;;;;15.18;8.05;;;;;;;10.17;100.00;102567.16;6087043;19;20309;-74
2024/01/30 09:13:43;;;;;;;17.75;7.38;;;;;;;10.15;100.00;102568.03;6089555;19;20051;-75
2024/01/30 09:15:48;;;;;;;13.00;6.93;;;;;;;10.10;100.00;102571.56;6086092;19;20498;-75
2024/01/30 09:17:52;;;;;;;14.18;7.88;;;;;;;10.11;100.00;102577.72;6087790;19;20038;-74
2024/01/30 09:19:57;;;;;;;;;;;;;;;10.09;100.00;102574.25;6087899;19;20006;-75
2024/01/30 09:22:04;;;;;;;13.88;6.40;;;;;;;10.05;100.00;102576.00;6088155;19;19910;-79
2024/01/30 09:24:12;;;;;;;13.15;6.65;;;;;;;10.03;100.00;102571.66;6087415;19;20009;-74
2024/01/30 09:26:17;;;;;;;14.20;5.80;;;;;;;10.04;100.00;102579.53;6085836;19;20421;-76
2024/01/30 09:28:22;;;;;;;13.18;6.80;;;;;;;10.04;100.00;102576.03;6090233;19;20367;-76
2024/01/30 09:30:31;;;;;;;13.15;6.07;;;;;;;9.97;100.00;102587.50;6080834;19;20498;-75
2024/01/30 09:32:33;;;;;;;15.27;5.78;;;;;;;9.91;100.00;102596.31;6090377;19;20358;-77
2024/01/30 09:34:39;;;;;;;14.07;5.93;;;;;;;9.93;100.00;102594.53;6086085;19;20007;-75
2024/01/30 09:36:44;;;;;;;11.45;4.80;;;;;;;9.88;100.00;102601.59;6087154;19;20112;-76
2024/01/30 09:38:52;;;;;;;13.93;4.15;;;;;;;9.84;100.00;102602.50;6089356;19;20578;-76